createdAt,value
2017-11-30T00:01:58.488Z,44.90
2017-11-30T00:04:26.770Z,43.23
2017-11-30T00:06:55.118Z,39.73
2017-11-30T00:09:23.388Z,37.27
2017-11-30T00:11:52.435Z,39.20
2017-11-30T00:14:20.737Z,36.13
2017-11-30T00:16:48.997Z,35.23
2017-11-30T00:19:17.234Z,36.20
2017-11-30T00:21:46.282Z,51.33
2017-11-30T00:24:14.527Z,38.67
2017-11-30T00:26:42.796Z,36.17
2017-11-30T00:29:11.080Z,34.30
2017-11-30T00:31:39.380Z,41.40
2017-11-30T00:34:07.628Z,38.10
2017-11-30T00:36:36.768Z,38.37
2017-11-30T00:39:05.060Z,41.40
2017-11-30T00:41:33.287Z,35.30
2017-11-30T00:44:13.543Z,44.97
2017-11-30T00:46:41.809Z,29.37
2017-11-30T00:49:10.876Z,39.90
2017-11-30T00:51:39.124Z,37.93
2017-11-30T00:54:07.398Z,51.60
2017-11-30T00:56:35.651Z,50.40
2017-11-30T00:59:03.926Z,47.17
2017-11-30T01:01:32.940Z,35.67
2017-11-30T01:04:01.222Z,36.90
2017-11-30T01:06:30.431Z,31.50
2017-11-30T01:08:58.691Z,41.37
2017-11-30T01:11:26.966Z,40.47
2017-11-30T01:13:55.203Z,37.37
2017-11-30T01:16:24.246Z,36.60
2017-11-30T01:18:52.513Z,36.43
2017-11-30T01:21:27.515Z,31.17
2017-11-30T01:23:56.574Z,28.33
2017-11-30T01:26:24.839Z,34.57
2017-11-30T01:28:53.104Z,25.47
2017-11-30T01:31:21.370Z,31.10
2017-11-30T01:33:50.380Z,27.37
2017-11-30T01:36:18.670Z,29.97
2017-11-30T01:38:46.890Z,36.50
2017-11-30T01:41:15.951Z,36.50
2017-11-30T01:43:44.217Z,32.97
2017-11-30T01:46:13.320Z,29.43
2017-11-30T01:48:41.592Z,25.80
2017-11-30T01:51:10.736Z,37.27
2017-11-30T01:53:38.996Z,29.23
2017-11-30T01:56:07.259Z,25.90
2017-11-30T01:58:35.533Z,26.90
2017-11-30T02:01:03.796Z,28.50
2017-11-30T02:03:32.034Z,24.13
2017-11-30T02:06:00.315Z,31.20
2017-11-30T02:08:28.588Z,31.50
2017-11-30T02:10:57.607Z,33.37
2017-11-30T02:13:25.876Z,27.23
2017-11-30T02:15:54.201Z,26.30
2017-11-30T02:18:22.500Z,30.30
2017-11-30T02:20:50.759Z,27.87
2017-11-30T02:23:19.026Z,28.20
2017-11-30T02:25:47.311Z,27.73
2017-11-30T02:28:15.601Z,31.40
2017-11-30T02:30:44.659Z,26.57
2017-11-30T02:33:12.954Z,27.83
2017-11-30T02:35:41.253Z,30.20
2017-11-30T02:38:09.542Z,26.77
2017-11-30T02:40:38.704Z,34.17
2017-11-30T02:43:06.955Z,30.77
2017-11-30T02:45:35.239Z,29.00
2017-11-30T02:48:03.490Z,34.90
2017-11-30T02:50:32.533Z,36.27
2017-11-30T02:53:00.838Z,34.50
2017-11-30T02:55:29.868Z,43.40
2017-11-30T02:57:58.206Z,36.30
2017-11-30T03:00:26.422Z,30.17
2017-11-30T03:02:54.693Z,41.23
2017-11-30T03:05:22.983Z,39.47
2017-11-30T03:07:51.335Z,71.03
2017-11-30T03:10:20.347Z,42.63
2017-11-30T03:12:48.655Z,40.17
2017-11-30T03:15:16.930Z,45.80
2017-11-30T03:17:45.212Z,43.07
2017-11-30T03:20:14.066Z,38.43
2017-11-30T03:22:42.353Z,31.37
2017-11-30T03:25:10.632Z,38.90
2017-11-30T03:27:39.651Z,34.07
2017-11-30T03:30:07.900Z,37.57
2017-11-30T03:32:36.185Z,44.07
2017-11-30T03:35:05.218Z,37.80
2017-11-30T03:37:34.378Z,38.07
2017-11-30T03:40:02.660Z,47.37
2017-11-30T03:42:30.935Z,34.20
2017-11-30T03:44:59.217Z,40.07
2017-11-30T03:47:27.474Z,35.40
2017-11-30T03:49:55.750Z,43.03
2017-11-30T03:52:24.776Z,35.37
2017-11-30T03:54:53.038Z,43.93
2017-11-30T03:57:21.298Z,38.00
2017-11-30T03:59:50.328Z,60.23
2017-11-30T04:02:18.584Z,41.87
2017-11-30T04:04:46.858Z,45.23
2017-11-30T04:07:15.117Z,38.07
2017-11-30T04:09:44.160Z,35.20
2017-11-30T04:12:12.420Z,38.80
2017-11-30T04:14:40.722Z,35.43
2017-11-30T04:17:08.982Z,36.90
2017-11-30T04:19:37.246Z,37.50
2017-11-30T04:22:05.508Z,49.97
2017-11-30T04:24:34.584Z,41.37
2017-11-30T04:27:03.079Z,46.60
2017-11-30T04:29:32.089Z,44.77
2017-11-30T04:32:00.420Z,43.73
2017-11-30T04:34:29.479Z,40.43
2017-11-30T04:36:57.766Z,47.60
2017-11-30T04:39:26.003Z,46.90
2017-11-30T04:41:55.032Z,46.13
2017-11-30T04:44:23.285Z,36.53
2017-11-30T04:46:51.563Z,44.57
2017-11-30T04:49:20.580Z,50.77
2017-11-30T04:51:48.837Z,51.43
2017-11-30T04:54:17.110Z,48.60
2017-11-30T04:56:46.170Z,48.87
2017-11-30T04:59:14.462Z,50.33
2017-11-30T05:01:42.842Z,47.33
2017-11-30T05:04:11.091Z,45.27
2017-11-30T05:06:39.353Z,44.70
2017-11-30T05:09:08.517Z,52.43
2017-11-30T05:11:37.512Z,50.27
2017-11-30T05:14:06.615Z,45.97
2017-11-30T05:16:35.725Z,48.20
2017-11-30T05:19:04.703Z,47.43
2017-11-30T05:21:32.961Z,51.87
2017-11-30T05:24:02.017Z,55.57
2017-11-30T05:26:30.287Z,51.97
2017-11-30T05:28:58.525Z,53.03
2017-11-30T05:31:26.812Z,50.10
2017-11-30T05:33:55.876Z,57.00
2017-11-30T05:36:24.123Z,72.53
2017-11-30T05:38:52.381Z,60.70
2017-11-30T05:41:20.677Z,57.40
2017-11-30T05:43:48.968Z,62.00
2017-11-30T05:46:17.245Z,53.77
2017-11-30T05:48:45.521Z,48.80
2017-11-30T05:51:13.774Z,42.07
2017-11-30T05:53:42.095Z,47.20
2017-11-30T05:56:10.346Z,54.53
2017-11-30T05:58:38.727Z,49.83
2017-11-30T06:01:06.998Z,47.50
2017-11-30T06:03:35.227Z,56.43
2017-11-30T06:06:04.264Z,42.77
2017-11-30T06:08:32.588Z,49.33
2017-11-30T06:11:00.834Z,49.03
2017-11-30T06:13:29.083Z,47.83
2017-11-30T06:15:57.413Z,58.87
2017-11-30T06:18:25.628Z,50.87
2017-11-30T06:20:53.899Z,50.13
2017-11-30T06:23:22.910Z,41.70
2017-11-30T06:25:51.178Z,49.00
2017-11-30T06:28:19.476Z,52.43
2017-11-30T06:30:47.710Z,45.03
2017-11-30T06:33:16.766Z,42.53
2017-11-30T06:35:45.027Z,46.83
2017-11-30T06:38:23.585Z,47.23
2017-11-30T06:40:51.827Z,50.10
2017-11-30T06:43:20.088Z,51.67
2017-11-30T06:45:48.341Z,48.47
2017-11-30T06:48:17.387Z,58.67
2017-11-30T06:50:45.710Z,56.73
2017-11-30T06:53:14.737Z,58.87
2017-11-30T06:55:43.010Z,50.33
2017-11-30T06:58:11.292Z,53.33
2017-11-30T07:00:39.586Z,57.00
2017-11-30T07:03:07.835Z,54.93
2017-11-30T07:05:36.131Z,55.10
2017-11-30T07:08:04.415Z,57.70
2017-11-30T07:10:32.709Z,58.90
2017-11-30T07:13:01.014Z,52.67
2017-11-30T07:15:29.264Z,66.13
2017-11-30T07:17:57.534Z,63.47
2017-11-30T07:20:25.825Z,54.07
2017-11-30T07:22:54.086Z,54.17
2017-11-30T07:25:22.335Z,48.47
2017-11-30T07:27:50.645Z,57.63
2017-11-30T07:30:18.912Z,53.03
2017-11-30T07:32:47.181Z,59.33
2017-11-30T07:35:15.449Z,62.57
2017-11-30T07:37:44.415Z,57.57
2017-11-30T07:40:13.444Z,56.53
2017-11-30T07:42:41.725Z,56.00
2017-11-30T07:45:09.953Z,58.17
2017-11-30T07:47:39.034Z,52.77
2017-11-30T07:50:07.664Z,58.20
2017-11-30T07:52:35.921Z,57.67
2017-11-30T07:55:04.948Z,68.83
2017-11-30T07:57:34.064Z,61.40
2017-11-30T08:00:02.351Z,95.27
2017-11-30T08:02:30.588Z,62.37
2017-11-30T08:04:58.863Z,61.40
2017-11-30T08:07:27.188Z,80.93
2017-11-30T08:09:55.452Z,64.23
2017-11-30T08:12:23.764Z,67.20
2017-11-30T08:14:52.044Z,56.53
2017-11-30T08:17:21.096Z,76.20
2017-11-30T08:19:49.342Z,58.13
2017-11-30T08:22:18.223Z,63.33
2017-11-30T08:24:47.256Z,64.83
2017-11-30T08:27:15.537Z,56.77
2017-11-30T08:29:43.773Z,55.03
2017-11-30T08:32:13.255Z,54.87
2017-11-30T08:34:41.496Z,62.23
2017-11-30T08:37:10.448Z,62.90
2017-11-30T08:39:38.757Z,58.63
2017-11-30T08:42:07.110Z,67.57
2017-11-30T08:44:35.365Z,64.13
2017-11-30T08:47:03.601Z,56.90
2017-11-30T08:49:31.923Z,60.97
2017-11-30T08:52:00.158Z,64.83
2017-11-30T08:54:28.424Z,83.90
2017-11-30T08:56:57.580Z,70.53
2017-11-30T08:59:26.769Z,66.77
2017-11-30T09:01:55.044Z,67.23
2017-11-30T09:04:23.374Z,84.63
2017-11-30T09:06:51.656Z,80.73
2017-11-30T09:09:19.908Z,69.40
2017-11-30T09:11:48.583Z,74.33
2017-11-30T09:14:16.870Z,62.17
2017-11-30T09:16:45.884Z,63.03
2017-11-30T09:19:14.187Z,61.13
2017-11-30T09:21:42.414Z,58.90
2017-11-30T09:24:11.463Z,71.77
2017-11-30T09:26:39.734Z,62.57
2017-11-30T09:29:08.013Z,61.47
2017-11-30T09:31:36.273Z,63.00
2017-11-30T09:34:04.536Z,78.60
2017-11-30T09:36:32.820Z,73.23
2017-11-30T09:39:01.710Z,68.50
2017-11-30T09:41:30.055Z,68.00
2017-11-30T09:43:58.308Z,78.90
2017-11-30T09:46:26.594Z,74.70
2017-11-30T09:48:54.853Z,102.63
2017-11-30T09:51:23.155Z,66.23
2017-11-30T09:53:51.417Z,71.33
2017-11-30T09:56:19.782Z,76.97
2017-11-30T09:58:48.032Z,73.00
2017-11-30T10:01:16.286Z,67.40
2017-11-30T10:03:45.369Z,305.30
2017-11-30T10:06:13.936Z,209.03
2017-11-30T10:08:42.216Z,58.07
2017-11-30T10:11:10.478Z,64.80
2017-11-30T10:13:38.753Z,61.00
2017-11-30T10:16:07.024Z,68.43
2017-11-30T10:18:35.352Z,65.03
2017-11-30T10:21:03.622Z,65.70
2017-11-30T10:23:32.658Z,59.43
2017-11-30T10:26:00.903Z,69.30
2017-11-30T10:28:30.697Z,66.03
2017-11-30T10:30:59.715Z,76.47
2017-11-30T10:33:27.999Z,76.83
2017-11-30T10:35:56.255Z,97.73
2017-11-30T10:38:24.530Z,53.87
2017-11-30T10:40:52.749Z,59.03
2017-11-30T10:43:21.023Z,70.17
2017-11-30T10:45:49.260Z,61.73
2017-11-30T10:48:17.529Z,65.13
2017-11-30T10:50:45.775Z,53.20
2017-11-30T10:53:14.850Z,59.07
2017-11-30T10:55:44.191Z,51.53
2017-11-30T10:58:12.460Z,76.40
2017-11-30T11:00:40.689Z,57.23
2017-11-30T11:03:08.974Z,60.80
2017-11-30T11:05:37.353Z,48.83
2017-11-30T11:08:06.386Z,43.50
2017-11-30T11:10:34.633Z,54.87
2017-11-30T11:13:02.878Z,50.23
2017-11-30T11:15:31.915Z,52.03
2017-11-30T11:18:00.247Z,55.47
2017-11-30T11:20:28.500Z,42.93
2017-11-30T11:22:56.771Z,48.57
2017-11-30T11:25:25.094Z,51.67
2017-11-30T11:27:53.416Z,42.63
2017-11-30T11:30:21.695Z,49.00
2017-11-30T11:32:49.936Z,51.83
2017-11-30T11:35:18.984Z,45.13
2017-11-30T11:37:47.223Z,48.50
2017-11-30T11:40:15.558Z,49.27
2017-11-30T11:42:43.827Z,51.60
2017-11-30T11:45:12.092Z,61.50
2017-11-30T11:47:40.360Z,53.40
2017-11-30T11:50:08.587Z,65.00
2017-11-30T11:52:37.624Z,61.63
2017-11-30T11:55:05.877Z,51.37
2017-11-30T11:57:34.151Z,63.97
2017-11-30T12:00:02.500Z,55.17
2017-11-30T12:02:30.847Z,72.60
2017-11-30T12:04:59.115Z,62.50
2017-11-30T12:07:27.365Z,72.23
2017-11-30T12:09:56.014Z,59.80
2017-11-30T12:12:24.257Z,60.97
2017-11-30T12:14:53.455Z,64.60
2017-11-30T12:17:21.713Z,64.00
2017-11-30T12:19:50.057Z,48.50
2017-11-30T12:22:18.486Z,57.73
2017-11-30T12:24:46.728Z,54.77
2017-11-30T12:27:15.736Z,44.07
2017-11-30T12:29:44.023Z,55.87
2017-11-30T12:32:12.293Z,39.10
2017-11-30T12:34:40.615Z,46.93
2017-11-30T12:37:08.905Z,57.67
2017-11-30T12:39:37.291Z,43.80
2017-11-30T12:42:05.512Z,45.23
2017-11-30T12:44:34.731Z,45.07
2017-11-30T12:47:02.979Z,50.93
2017-11-30T12:49:31.254Z,44.70
2017-11-30T12:51:59.497Z,58.17
2017-11-30T12:54:28.646Z,45.27
2017-11-30T12:56:56.909Z,39.27
2017-11-30T12:59:25.154Z,46.17
2017-11-30T13:01:54.224Z,30.67
2017-11-30T13:04:22.453Z,34.43
2017-11-30T13:06:50.736Z,38.93
2017-11-30T13:09:19.006Z,33.57
2017-11-30T13:11:47.294Z,35.30
2017-11-30T13:14:15.562Z,38.50
2017-11-30T13:16:43.810Z,37.97
2017-11-30T13:19:12.895Z,32.97
2017-11-30T13:21:41.122Z,29.93
2017-11-30T13:24:09.410Z,31.10
2017-11-30T13:26:37.655Z,36.40
2017-11-30T13:29:06.703Z,42.30
2017-11-30T13:31:34.980Z,39.60
2017-11-30T13:34:06.018Z,47.23
2017-11-30T13:36:34.341Z,36.97
2017-11-30T13:39:02.612Z,32.97
2017-11-30T13:41:30.835Z,36.03
2017-11-30T13:43:59.080Z,36.30
2017-11-30T13:46:28.190Z,37.13
2017-11-30T13:48:56.473Z,33.30
2017-11-30T13:51:24.755Z,39.37
2017-11-30T13:53:53.047Z,38.57
2017-11-30T13:56:21.910Z,41.27
2017-11-30T13:58:50.923Z,41.13
2017-11-30T14:01:19.221Z,40.53
2017-11-30T14:03:47.532Z,45.43
2017-11-30T14:06:15.771Z,43.40
2017-11-30T14:08:44.065Z,56.10
2017-11-30T14:11:12.313Z,41.23
2017-11-30T14:13:40.620Z,38.70
2017-11-30T14:16:08.894Z,40.20
2017-11-30T14:18:37.148Z,47.97
2017-11-30T14:21:05.420Z,42.57
2017-11-30T14:23:33.674Z,45.40
2017-11-30T14:26:01.911Z,40.40
2017-11-30T14:28:30.206Z,54.03
2017-11-30T14:30:58.576Z,54.97
2017-11-30T14:33:26.969Z,54.40
2017-11-30T14:35:55.294Z,53.67
2017-11-30T14:38:23.551Z,37.17
2017-11-30T14:40:52.111Z,40.73
2017-11-30T14:43:20.485Z,39.27
2017-11-30T14:45:48.714Z,35.00
2017-11-30T14:48:16.993Z,41.93
2017-11-30T14:50:45.279Z,37.63
2017-11-30T14:53:13.560Z,33.33
2017-11-30T14:55:41.858Z,46.43
2017-11-30T14:58:11.417Z,39.07
2017-11-30T15:00:39.657Z,39.40
2017-11-30T15:03:07.990Z,32.10
2017-11-30T15:05:37.012Z,32.63
2017-11-30T15:08:05.268Z,29.00
2017-11-30T15:10:33.570Z,32.50
2017-11-30T15:13:01.872Z,29.20
2017-11-30T15:15:30.957Z,41.23
2017-11-30T15:17:59.254Z,36.50
2017-11-30T15:20:27.835Z,29.40
2017-11-30T15:22:56.127Z,31.33
2017-11-30T15:25:25.156Z,28.67
2017-11-30T15:27:53.440Z,36.30
2017-11-30T15:30:21.767Z,31.10
2017-11-30T15:32:50.014Z,51.00
2017-11-30T15:35:18.285Z,37.77
2017-11-30T15:37:46.933Z,40.17
2017-11-30T15:40:15.255Z,46.70
2017-11-30T15:42:43.506Z,38.37
2017-11-30T15:45:11.824Z,34.30
2017-11-30T15:47:40.086Z,44.00
2017-11-30T15:50:09.068Z,32.37
2017-11-30T15:52:37.461Z,33.70
2017-11-30T15:55:05.741Z,40.73
2017-11-30T15:57:34.048Z,42.57
2017-11-30T16:00:03.095Z,33.00
2017-11-30T16:02:31.470Z,31.97
2017-11-30T16:05:00.103Z,31.23
2017-11-30T16:07:29.173Z,34.17
2017-11-30T16:09:57.728Z,37.67
2017-11-30T16:12:26.368Z,27.57
2017-11-30T16:14:54.670Z,29.60
2017-11-30T16:17:23.683Z,20.13
2017-11-30T16:19:52.008Z,45.43
2017-11-30T16:22:20.703Z,42.57
2017-11-30T16:24:50.243Z,37.80
2017-11-30T16:27:18.545Z,22.47
2017-11-30T16:29:47.175Z,23.97
2017-11-30T16:32:16.230Z,23.47
2017-11-30T16:34:45.330Z,20.70
2017-11-30T16:37:13.630Z,35.53
2017-11-30T16:39:43.353Z,54.03
2017-11-30T16:42:12.407Z,37.57
2017-11-30T16:44:41.451Z,34.00
2017-11-30T16:47:09.876Z,33.83
2017-11-30T16:49:39.112Z,49.17
2017-11-30T16:52:07.366Z,28.87
2017-11-30T16:54:35.752Z,24.03
2017-11-30T16:57:04.076Z,24.03
2017-11-30T16:59:33.928Z,22.37
2017-11-30T17:02:02.163Z,17.93
2017-11-30T17:04:31.178Z,21.87
2017-11-30T17:07:00.158Z,22.90
2017-11-30T17:09:29.361Z,19.60
2017-11-30T17:11:58.396Z,29.23
2017-11-30T17:14:26.986Z,22.67
2017-11-30T17:16:55.335Z,23.97
2017-11-30T17:19:23.638Z,41.07
2017-11-30T17:21:51.938Z,30.10
2017-11-30T17:24:20.254Z,33.37
2017-11-30T17:26:48.711Z,33.63
2017-11-30T17:29:17.003Z,27.77
2017-11-30T17:31:46.246Z,27.20
2017-11-30T17:34:14.557Z,27.23
2017-11-30T17:36:42.855Z,36.63
2017-11-30T17:39:11.164Z,26.73
2017-11-30T17:41:39.525Z,34.27
2017-11-30T17:44:07.781Z,32.80
2017-11-30T17:46:36.178Z,34.00
2017-11-30T17:49:04.470Z,26.00
2017-11-30T17:51:32.735Z,20.37
2017-11-30T17:54:02.542Z,20.23
2017-11-30T17:56:33.910Z,24.13
2017-11-30T17:59:02.268Z,21.77
2017-11-30T18:01:31.314Z,26.37
2017-11-30T18:03:59.623Z,36.23
2017-11-30T18:06:27.916Z,21.47
2017-11-30T18:08:56.201Z,22.80
2017-11-30T18:11:25.284Z,28.50
2017-11-30T18:13:53.592Z,24.93
2017-11-30T18:16:22.627Z,23.27
2017-11-30T18:18:51.477Z,21.97
2017-11-30T18:21:19.777Z,33.90
2017-11-30T18:23:48.672Z,28.73
2017-11-30T18:26:16.952Z,26.97
2017-11-30T18:28:46.183Z,31.40
2017-11-30T18:31:14.485Z,29.47
2017-11-30T18:33:43.521Z,29.03
2017-11-30T18:36:13.354Z,25.30
2017-11-30T18:38:41.628Z,24.03
2017-11-30T18:41:09.942Z,27.17
2017-11-30T18:43:39.006Z,30.93
2017-11-30T18:46:07.313Z,47.60
2017-11-30T18:48:35.904Z,35.43
2017-11-30T18:51:04.211Z,38.77
2017-11-30T18:53:33.085Z,37.80
2017-11-30T18:56:02.142Z,33.07
2017-11-30T18:58:30.541Z,47.10
2017-11-30T19:00:59.725Z,41.03
2017-11-30T19:03:28.023Z,48.47
2017-11-30T19:05:57.133Z,48.93
2017-11-30T19:08:25.408Z,43.07
2017-11-30T19:10:53.717Z,46.37
2017-11-30T19:13:22.752Z,38.70
2017-11-30T19:15:51.105Z,43.47
2017-11-30T19:18:20.298Z,55.60
2017-11-30T19:20:48.601Z,39.97
2017-11-30T19:23:17.112Z,44.03
2017-11-30T19:25:45.594Z,43.73
2017-11-30T19:28:13.872Z,39.63
2017-11-30T19:30:43.013Z,50.83
2017-11-30T19:33:11.535Z,62.37
2017-11-30T19:35:40.751Z,87.23
2017-11-30T19:38:09.082Z,109.40
2017-11-30T19:40:38.157Z,253.10
2017-11-30T19:43:06.474Z,130.83
2017-11-30T19:45:35.577Z,114.07
2017-11-30T19:48:04.698Z,101.77
2017-11-30T19:50:32.972Z,88.50
2017-11-30T19:53:01.581Z,62.33
2017-11-30T19:55:30.715Z,55.97
2017-11-30T19:57:59.051Z,46.60
2017-11-30T20:00:27.579Z,43.10
2017-11-30T20:02:55.920Z,53.90
2017-11-30T20:05:24.382Z,72.47
2017-11-30T20:07:52.781Z,57.13
2017-11-30T20:10:22.067Z,52.00
2017-11-30T20:12:50.358Z,49.17
2017-11-30T20:15:19.423Z,45.87
2017-11-30T20:17:47.729Z,49.23
2017-11-30T20:20:16.877Z,50.00
2017-11-30T20:22:45.250Z,53.20
2017-11-30T20:25:13.541Z,52.93
2017-11-30T20:27:41.956Z,72.03
2017-11-30T20:30:10.321Z,61.97
2017-11-30T20:32:38.847Z,51.90
2017-11-30T20:35:07.882Z,55.47
2017-11-30T20:37:36.294Z,49.70
2017-11-30T20:40:06.116Z,60.27
2017-11-30T20:42:34.403Z,59.57
2017-11-30T20:45:02.767Z,62.67
2017-11-30T20:47:31.862Z,49.40
2017-11-30T20:50:01.081Z,50.47
2017-11-30T20:52:29.407Z,51.53
2017-11-30T20:54:58.694Z,46.50
2017-11-30T20:57:27.139Z,50.40
2017-11-30T20:59:55.515Z,49.33
2017-11-30T21:02:25.052Z,48.13
2017-11-30T21:04:54.336Z,53.90
2017-11-30T21:07:23.489Z,52.83
2017-11-30T21:09:51.815Z,53.43
2017-11-30T21:12:21.914Z,46.27
2017-11-30T21:14:50.241Z,45.47
2017-11-30T21:17:19.018Z,66.07
2017-11-30T21:19:47.356Z,55.87
2017-11-30T21:22:15.713Z,49.40
2017-11-30T21:24:44.169Z,52.60
2017-11-30T21:27:13.784Z,56.47
2017-11-30T21:29:43.717Z,54.33
2017-11-30T21:32:12.420Z,46.13
2017-11-30T21:34:40.877Z,54.63
2017-11-30T21:37:09.381Z,55.40
2017-11-30T21:39:49.851Z,52.30
2017-11-30T21:42:23.119Z,55.30
2017-11-30T21:44:51.622Z,46.20
2017-11-30T21:47:22.006Z,52.87
2017-11-30T21:49:50.425Z,49.53
2017-11-30T21:52:20.598Z,48.17
2017-11-30T21:54:51.181Z,42.87
2017-11-30T21:57:20.786Z,51.87
2017-11-30T21:59:49.176Z,51.50
2017-11-30T22:02:18.415Z,57.87
2017-11-30T22:04:54.241Z,51.97
2017-11-30T22:07:24.249Z,48.73
2017-11-30T22:09:52.505Z,42.37
2017-11-30T22:12:22.496Z,52.90
2017-11-30T22:14:51.084Z,59.73
2017-11-30T22:17:20.718Z,53.70
2017-11-30T22:19:49.924Z,48.53
2017-11-30T22:22:18.467Z,49.97
2017-11-30T22:24:46.923Z,53.63
2017-11-30T22:27:15.435Z,47.70
2017-11-30T22:29:52.452Z,56.17
2017-11-30T22:32:20.815Z,52.23
2017-11-30T22:34:49.333Z,47.60
2017-11-30T22:37:20.206Z,45.07
2017-11-30T22:39:52.676Z,46.37
2017-11-30T22:42:23.178Z,54.67
2017-11-30T22:44:52.674Z,51.30
2017-11-30T22:50:31.206Z,53.60
2017-11-30T22:52:59.911Z,51.50
2017-11-30T22:55:30.470Z,73.77
2017-11-30T22:58:01.381Z,51.50
2017-11-30T23:00:49.311Z,53.47
2017-11-30T23:03:24.190Z,63.73
2017-11-30T23:05:52.829Z,55.90
2017-11-30T23:08:24.688Z,46.70
2017-11-30T23:10:56.725Z,50.13
2017-11-30T23:13:25.355Z,51.03
2017-11-30T23:16:01.013Z,58.10
2017-11-30T23:18:29.496Z,61.73
2017-11-30T23:21:03.843Z,48.90
2017-11-30T23:23:38.522Z,54.47
2017-11-30T23:28:58.522Z,63.77
2017-11-30T23:39:07.260Z,54.00
2017-11-30T23:47:36.508Z,42.00
2017-11-30T23:50:10.896Z,48.70
2017-11-30T23:52:39.441Z,52.07
2017-11-30T23:55:08.921Z,39.57
2017-11-30T23:57:40.826Z,43.13
